sensor_id;sensor_type;location;lat;lon;timestamp;P1;durP1;ratioP1;P2;durP2;ratioP2
43504;SDS011;29098;48.184;16.298;2022-08-04T00:01:52;6.95;;;3.30;;
43504;SDS011;29098;48.184;16.298;2022-08-04T00:04:44;4.00;;;2.65;;
43504;SDS011;29098;48.184;16.298;2022-08-04T00:07:18;6.72;;;2.60;;
43504;SDS011;29098;48.184;16.298;2022-08-04T00:10:09;4.65;;;3.15;;
43504;SDS011;29098;48.184;16.298;2022-08-04T00:13:33;3.90;;;2.70;;
43504;SDS011;29098;48.184;16.298;2022-08-04T00:16:22;5.20;;;3.10;;
43504;SDS011;29098;48.184;16.298;2022-08-04T00:19:18;8.35;;;3.40;;
43504;SDS011;29098;48.184;16.298;2022-08-04T00:22:04;5.50;;;2.75;;
43504;SDS011;29098;48.184;16.298;2022-08-04T00:24:53;4.25;;;2.97;;
43504;SDS011;29098;48.184;16.298;2022-08-04T00:27:29;5.28;;;3.55;;
43504;SDS011;29098;48.184;16.298;2022-08-04T00:30:13;4.78;;;3.17;;
43504;SDS011;29098;48.184;16.298;2022-08-04T00:32:59;5.43;;;2.92;;
43504;SDS011;29098;48.184;16.298;2022-08-04T00:35:28;6.85;;;3.35;;
43504;SDS011;29098;48.184;16.298;2022-08-04T00:37:57;8.85;;;3.38;;
43504;SDS011;29098;48.184;16.298;2022-08-04T00:57:05;4.20;;;2.90;;
43504;SDS011;29098;48.184;16.298;2022-08-04T01:00:04;5.30;;;3.13;;
43504;SDS011;29098;48.184;16.298;2022-08-04T01:09:47;3.95;;;2.80;;
43504;SDS011;29098;48.184;16.298;2022-08-04T01:15:16;7.68;;;2.95;;
43504;SDS011;29098;48.184;16.298;2022-08-04T01:18:06;5.38;;;3.13;;
43504;SDS011;29098;48.184;16.298;2022-08-04T01:20:34;5.60;;;3.07;;
43504;SDS011;29098;48.184;16.298;2022-08-04T01:23:24;6.60;;;2.90;;
43504;SDS011;29098;48.184;16.298;2022-08-04T01:29:12;6.30;;;2.83;;
43504;SDS011;29098;48.184;16.298;2022-08-04T01:34:30;6.53;;;3.40;;
43504;SDS011;29098;48.184;16.298;2022-08-04T01:40:27;4.53;;;3.17;;
43504;SDS011;29098;48.184;16.298;2022-08-04T01:43:15;5.28;;;2.90;;
43504;SDS011;29098;48.184;16.298;2022-08-04T01:45:48;4.57;;;3.10;;
43504;SDS011;29098;48.184;16.298;2022-08-04T01:48:22;4.85;;;3.50;;
43504;SDS011;29098;48.184;16.298;2022-08-04T01:51:06;4.65;;;3.00;;
43504;SDS011;29098;48.184;16.298;2022-08-04T01:53:40;7.80;;;2.95;;
43504;SDS011;29098;48.184;16.298;2022-08-04T01:56:17;6.15;;;3.22;;
43504;SDS011;29098;48.184;16.298;2022-08-04T01:58:45;4.88;;;3.50;;
43504;SDS011;29098;48.184;16.298;2022-08-04T02:01:13;4.82;;;3.05;;
43504;SDS011;29098;48.184;16.298;2022-08-04T02:03:40;5.35;;;2.90;;
43504;SDS011;29098;48.184;16.298;2022-08-04T02:20:28;4.35;;;3.00;;
43504;SDS011;29098;48.184;16.298;2022-08-04T02:23:02;4.20;;;3.05;;
43504;SDS011;29098;48.184;16.298;2022-08-04T02:25:46;4.22;;;2.85;;
43504;SDS011;29098;48.184;16.298;2022-08-04T02:28:32;5.55;;;2.83;;
43504;SDS011;29098;48.184;16.298;2022-08-04T02:36:45;5.72;;;3.13;;
43504;SDS011;29098;48.184;16.298;2022-08-04T02:39:16;5.38;;;3.35;;
43504;SDS011;29098;48.184;16.298;2022-08-04T02:41:46;4.80;;;2.55;;
43504;SDS011;29098;48.184;16.298;2022-08-04T02:44:13;5.20;;;3.20;;
43504;SDS011;29098;48.184;16.298;2022-08-04T02:49:17;4.32;;;2.60;;
43504;SDS011;29098;48.184;16.298;2022-08-04T02:51:52;4.57;;;2.67;;
43504;SDS011;29098;48.184;16.298;2022-08-04T02:54:30;4.95;;;2.80;;
43504;SDS011;29098;48.184;16.298;2022-08-04T02:57:07;4.55;;;3.65;;
43504;SDS011;29098;48.184;16.298;2022-08-04T02:59:52;5.63;;;3.05;;
43504;SDS011;29098;48.184;16.298;2022-08-04T03:02:44;4.70;;;3.30;;
43504;SDS011;29098;48.184;16.298;2022-08-04T03:05:25;4.80;;;3.10;;
43504;SDS011;29098;48.184;16.298;2022-08-04T03:08:11;6.80;;;3.40;;
43504;SDS011;29098;48.184;16.298;2022-08-04T03:25:37;4.78;;;3.38;;
43504;SDS011;29098;48.184;16.298;2022-08-04T03:34:24;4.20;;;3.03;;
43504;SDS011;29098;48.184;16.298;2022-08-04T03:37:38;3.65;;;2.83;;
43504;SDS011;29098;48.184;16.298;2022-08-04T03:54:29;5.82;;;3.22;;
43504;SDS011;29098;48.184;16.298;2022-08-04T04:02:16;6.03;;;3.22;;
43504;SDS011;29098;48.184;16.298;2022-08-04T04:25:11;7.22;;;3.53;;
43504;SDS011;29098;48.184;16.298;2022-08-04T04:35:08;5.72;;;3.22;;
43504;SDS011;29098;48.184;16.298;2022-08-04T04:42:13;5.25;;;3.13;;
43504;SDS011;29098;48.184;16.298;2022-08-04T04:58:37;5.25;;;3.55;;
43504;SDS011;29098;48.184;16.298;2022-08-04T05:01:51;6.13;;;3.53;;
43504;SDS011;29098;48.184;16.298;2022-08-04T05:15:06;7.05;;;3.38;;
43504;SDS011;29098;48.184;16.298;2022-08-04T05:18:26;7.00;;;4.03;;
43504;SDS011;29098;48.184;16.298;2022-08-04T05:22:01;6.45;;;3.38;;
43504;SDS011;29098;48.184;16.298;2022-08-04T05:25:45;5.68;;;3.50;;
43504;SDS011;29098;48.184;16.298;2022-08-04T05:29:17;5.65;;;3.35;;
43504;SDS011;29098;48.184;16.298;2022-08-04T05:32:14;5.53;;;3.33;;
43504;SDS011;29098;48.184;16.298;2022-08-04T05:38:56;6.05;;;3.65;;
43504;SDS011;29098;48.184;16.298;2022-08-04T05:42:04;6.03;;;3.63;;
43504;SDS011;29098;48.184;16.298;2022-08-04T05:45:29;7.15;;;4.30;;
43504;SDS011;29098;48.184;16.298;2022-08-04T05:48:19;6.55;;;4.00;;
43504;SDS011;29098;48.184;16.298;2022-08-04T05:54:26;5.75;;;3.67;;
43504;SDS011;29098;48.184;16.298;2022-08-04T05:57:14;6.57;;;4.07;;
43504;SDS011;29098;48.184;16.298;2022-08-04T06:00:23;8.55;;;3.88;;
43504;SDS011;29098;48.184;16.298;2022-08-04T06:03:34;7.55;;;3.80;;
43504;SDS011;29098;48.184;16.298;2022-08-04T06:07:03;6.80;;;4.10;;
43504;SDS011;29098;48.184;16.298;2022-08-04T06:10:29;10.73;;;4.18;;
43504;SDS011;29098;48.184;16.298;2022-08-04T06:13:05;9.43;;;4.25;;
43504;SDS011;29098;48.184;16.298;2022-08-04T06:16:37;7.43;;;4.22;;
43504;SDS011;29098;48.184;16.298;2022-08-04T06:19:45;8.15;;;3.97;;
43504;SDS011;29098;48.184;16.298;2022-08-04T06:23:10;9.27;;;3.90;;
43504;SDS011;29098;48.184;16.298;2022-08-04T06:26:36;6.80;;;3.92;;
43504;SDS011;29098;48.184;16.298;2022-08-04T06:30:03;10.40;;;3.83;;
43504;SDS011;29098;48.184;16.298;2022-08-04T06:32:47;8.05;;;4.20;;
43504;SDS011;29098;48.184;16.298;2022-08-04T06:35:46;8.88;;;3.47;;
43504;SDS011;29098;48.184;16.298;2022-08-04T06:39:13;8.95;;;4.10;;
43504;SDS011;29098;48.184;16.298;2022-08-04T06:42:02;7.90;;;4.15;;
43504;SDS011;29098;48.184;16.298;2022-08-04T06:44:55;10.10;;;3.78;;
43504;SDS011;29098;48.184;16.298;2022-08-04T06:48:07;6.00;;;3.60;;
43504;SDS011;29098;48.184;16.298;2022-08-04T06:51:35;7.90;;;4.38;;
43504;SDS011;29098;48.184;16.298;2022-08-04T06:54:56;6.57;;;4.25;;
43504;SDS011;29098;48.184;16.298;2022-08-04T06:58:03;6.38;;;3.80;;
43504;SDS011;29098;48.184;16.298;2022-08-04T07:01:13;9.52;;;4.22;;
43504;SDS011;29098;48.184;16.298;2022-08-04T07:04:23;10.55;;;3.95;;
43504;SDS011;29098;48.184;16.298;2022-08-04T07:07:50;5.50;;;3.40;;
43504;SDS011;29098;48.184;16.298;2022-08-04T07:10:45;5.45;;;3.45;;
43504;SDS011;29098;48.184;16.298;2022-08-04T07:13:52;5.88;;;3.53;;
43504;SDS011;29098;48.184;16.298;2022-08-04T07:17:04;7.20;;;3.80;;
43504;SDS011;29098;48.184;16.298;2022-08-04T07:20:12;7.93;;;3.65;;
43504;SDS011;29098;48.184;16.298;2022-08-04T07:23:24;6.85;;;3.45;;
43504;SDS011;29098;48.184;16.298;2022-08-04T07:26:27;7.60;;;3.63;;
43504;SDS011;29098;48.184;16.298;2022-08-04T07:29:52;4.47;;;3.15;;
43504;SDS011;29098;48.184;16.298;2022-08-04T07:32:58;5.72;;;3.40;;
43504;SDS011;29098;48.184;16.298;2022-08-04T07:36:00;5.70;;;3.60;;
43504;SDS011;29098;48.184;16.298;2022-08-04T07:39:30;6.35;;;3.58;;
43504;SDS011;29098;48.184;16.298;2022-08-04T07:42:39;5.43;;;3.78;;
43504;SDS011;29098;48.184;16.298;2022-08-04T07:46:08;10.25;;;3.65;;
43504;SDS011;29098;48.184;16.298;2022-08-04T07:52:22;5.85;;;3.17;;
43504;SDS011;29098;48.184;16.298;2022-08-04T07:54:48;9.93;;;3.53;;
43504;SDS011;29098;48.184;16.298;2022-08-04T07:57:16;5.43;;;3.35;;
43504;SDS011;29098;48.184;16.298;2022-08-04T07:59:42;5.68;;;3.88;;
43504;SDS011;29098;48.184;16.298;2022-08-04T08:02:08;8.30;;;3.67;;
43504;SDS011;29098;48.184;16.298;2022-08-04T08:04:34;5.20;;;3.20;;
43504;SDS011;29098;48.184;16.298;2022-08-04T08:07:00;7.07;;;3.47;;
43504;SDS011;29098;48.184;16.298;2022-08-04T08:09:26;6.95;;;3.72;;
43504;SDS011;29098;48.184;16.298;2022-08-04T08:11:52;7.45;;;3.80;;
43504;SDS011;29098;48.184;16.298;2022-08-04T08:14:18;5.90;;;2.95;;
43504;SDS011;29098;48.184;16.298;2022-08-04T08:16:44;5.60;;;3.38;;
43504;SDS011;29098;48.184;16.298;2022-08-04T08:19:11;4.47;;;2.60;;
43504;SDS011;29098;48.184;16.298;2022-08-04T08:21:38;4.40;;;2.65;;
43504;SDS011;29098;48.184;16.298;2022-08-04T08:24:04;5.32;;;2.75;;
43504;SDS011;29098;48.184;16.298;2022-08-04T08:26:30;6.30;;;3.80;;
43504;SDS011;29098;48.184;16.298;2022-08-04T08:28:55;4.28;;;2.85;;
43504;SDS011;29098;48.184;16.298;2022-08-04T08:31:21;4.88;;;2.80;;
43504;SDS011;29098;48.184;16.298;2022-08-04T08:33:47;4.82;;;2.70;;
43504;SDS011;29098;48.184;16.298;2022-08-04T08:36:33;8.30;;;3.67;;
43504;SDS011;29098;48.184;16.298;2022-08-04T08:39:37;6.53;;;2.88;;
43504;SDS011;29098;48.184;16.298;2022-08-04T09:03:50;4.45;;;3.03;;
43504;SDS011;29098;48.184;16.298;2022-08-04T09:06:40;4.65;;;3.20;;
43504;SDS011;29098;48.184;16.298;2022-08-04T09:12:08;4.53;;;2.55;;
43504;SDS011;29098;48.184;16.298;2022-08-04T09:14:44;6.22;;;2.72;;
43504;SDS011;29098;48.184;16.298;2022-08-04T09:17:26;4.43;;;2.90;;
43504;SDS011;29098;48.184;16.298;2022-08-04T09:20:02;5.60;;;2.72;;
43504;SDS011;29098;48.184;16.298;2022-08-04T09:27:50;6.18;;;2.60;;
43504;SDS011;29098;48.184;16.298;2022-08-04T09:30:20;6.72;;;3.10;;
43504;SDS011;29098;48.184;16.298;2022-08-04T09:35:37;3.85;;;2.50;;
43504;SDS011;29098;48.184;16.298;2022-08-04T09:46:05;4.78;;;3.05;;
43504;SDS011;29098;48.184;16.298;2022-08-04T10:00:01;5.65;;;2.53;;
43504;SDS011;29098;48.184;16.298;2022-08-04T10:02:33;3.38;;;2.35;;
43504;SDS011;29098;48.184;16.298;2022-08-04T10:05:03;3.42;;;2.10;;
43504;SDS011;29098;48.184;16.298;2022-08-04T10:10:39;4.40;;;2.47;;
43504;SDS011;29098;48.184;16.298;2022-08-04T10:16:06;4.00;;;2.25;;
43504;SDS011;29098;48.184;16.298;2022-08-04T10:18:47;3.85;;;2.30;;
43504;SDS011;29098;48.184;16.298;2022-08-04T10:21:28;4.20;;;2.50;;
43504;SDS011;29098;48.184;16.298;2022-08-04T10:27:57;7.28;;;2.50;;
43504;SDS011;29098;48.184;16.298;2022-08-04T10:30:11;4.35;;;2.20;;
43504;SDS011;29098;48.184;16.298;2022-08-04T10:35:17;4.38;;;2.50;;
43504;SDS011;29098;48.184;16.298;2022-08-04T10:40:25;4.00;;;2.42;;
43504;SDS011;29098;48.184;16.298;2022-08-04T10:43:10;7.65;;;2.40;;
43504;SDS011;29098;48.184;16.298;2022-08-04T10:45:45;3.92;;;2.20;;
43504;SDS011;29098;48.184;16.298;2022-08-04T10:51:26;4.20;;;2.22;;
43504;SDS011;29098;48.184;16.298;2022-08-04T10:53:58;5.72;;;1.70;;
43504;SDS011;29098;48.184;16.298;2022-08-04T10:56:37;6.70;;;2.70;;
43504;SDS011;29098;48.184;16.298;2022-08-04T11:00:08;5.32;;;2.42;;
43504;SDS011;29098;48.184;16.298;2022-08-04T11:02:20;4.10;;;2.10;;
43504;SDS011;29098;48.184;16.298;2022-08-04T11:05:00;4.72;;;2.00;;
43504;SDS011;29098;48.184;16.298;2022-08-04T11:07:36;5.38;;;2.50;;
43504;SDS011;29098;48.184;16.298;2022-08-04T11:10:05;4.18;;;2.10;;
43504;SDS011;29098;48.184;16.298;2022-08-04T11:12:33;5.03;;;2.25;;
43504;SDS011;29098;48.184;16.298;2022-08-04T11:15:03;4.47;;;1.92;;
43504;SDS011;29098;48.184;16.298;2022-08-04T11:20:40;5.38;;;1.90;;
43504;SDS011;29098;48.184;16.298;2022-08-04T11:23:14;3.20;;;1.77;;
43504;SDS011;29098;48.184;16.298;2022-08-04T11:25:52;5.63;;;2.20;;
43504;SDS011;29098;48.184;16.298;2022-08-04T11:28:36;3.20;;;1.98;;
43504;SDS011;29098;48.184;16.298;2022-08-04T11:31:18;3.38;;;1.95;;
43504;SDS011;29098;48.184;16.298;2022-08-04T11:36:31;3.33;;;2.10;;
43504;SDS011;29098;48.184;16.298;2022-08-04T11:39:29;10.40;;;2.15;;
43504;SDS011;29098;48.184;16.298;2022-08-04T11:42:09;3.40;;;2.20;;
43504;SDS011;29098;48.184;16.298;2022-08-04T11:44:49;4.32;;;2.10;;
43504;SDS011;29098;48.184;16.298;2022-08-04T11:47:27;6.63;;;2.60;;
43504;SDS011;29098;48.184;16.298;2022-08-04T11:50:09;3.38;;;2.10;;
43504;SDS011;29098;48.184;16.298;2022-08-04T11:52:39;4.22;;;2.20;;
43504;SDS011;29098;48.184;16.298;2022-08-04T11:55:07;3.25;;;1.98;;
43504;SDS011;29098;48.184;16.298;2022-08-04T11:57:35;4.05;;;1.90;;
43504;SDS011;29098;48.184;16.298;2022-08-04T12:00:03;2.80;;;1.70;;
43504;SDS011;29098;48.184;16.298;2022-08-04T12:05:43;3.60;;;2.15;;
43504;SDS011;29098;48.184;16.298;2022-08-04T12:08:28;3.65;;;2.45;;
43504;SDS011;29098;48.184;16.298;2022-08-04T12:11:20;2.65;;;1.80;;
43504;SDS011;29098;48.184;16.298;2022-08-04T12:14:09;7.75;;;2.55;;
43504;SDS011;29098;48.184;16.298;2022-08-04T12:16:44;4.05;;;2.17;;
43504;SDS011;29098;48.184;16.298;2022-08-04T12:19:23;3.85;;;2.08;;
43504;SDS011;29098;48.184;16.298;2022-08-04T12:21:57;3.50;;;2.13;;
43504;SDS011;29098;48.184;16.298;2022-08-04T12:24:30;3.90;;;2.00;;
43504;SDS011;29098;48.184;16.298;2022-08-04T12:27:02;4.10;;;2.17;;
43504;SDS011;29098;48.184;16.298;2022-08-04T12:29:34;3.35;;;1.75;;
43504;SDS011;29098;48.184;16.298;2022-08-04T12:32:13;4.97;;;2.42;;
43504;SDS011;29098;48.184;16.298;2022-08-04T12:34:52;4.20;;;2.40;;
43504;SDS011;29098;48.184;16.298;2022-08-04T12:37:26;4.13;;;2.50;;
43504;SDS011;29098;48.184;16.298;2022-08-04T12:39:57;2.90;;;1.85;;
43504;SDS011;29098;48.184;16.298;2022-08-04T12:42:28;4.40;;;2.30;;
43504;SDS011;29098;48.184;16.298;2022-08-04T12:45:05;2.53;;;1.65;;
43504;SDS011;29098;48.184;16.298;2022-08-04T12:47:32;8.48;;;2.53;;
43504;SDS011;29098;48.184;16.298;2022-08-04T12:50:00;4.72;;;2.08;;
43504;SDS011;29098;48.184;16.298;2022-08-04T12:52:49;4.75;;;1.80;;
43504;SDS011;29098;48.184;16.298;2022-08-04T12:55:16;3.83;;;2.20;;
43504;SDS011;29098;48.184;16.298;2022-08-04T12:57:49;3.92;;;1.70;;
43504;SDS011;29098;48.184;16.298;2022-08-04T13:00:37;3.10;;;2.00;;
43504;SDS011;29098;48.184;16.298;2022-08-04T13:03:05;4.35;;;2.10;;
43504;SDS011;29098;48.184;16.298;2022-08-04T13:05:34;2.97;;;1.80;;
43504;SDS011;29098;48.184;16.298;2022-08-04T13:08:01;3.13;;;1.85;;
43504;SDS011;29098;48.184;16.298;2022-08-04T13:10:29;3.03;;;1.77;;
43504;SDS011;29098;48.184;16.298;2022-08-04T13:13:01;3.83;;;1.63;;
43504;SDS011;29098;48.184;16.298;2022-08-04T13:15:27;2.88;;;1.70;;
43504;SDS011;29098;48.184;16.298;2022-08-04T13:20:27;3.03;;;1.60;;
43504;SDS011;29098;48.184;16.298;2022-08-04T13:25:31;2.95;;;2.00;;
43504;SDS011;29098;48.184;16.298;2022-08-04T13:27:59;3.20;;;2.03;;
43504;SDS011;29098;48.184;16.298;2022-08-04T13:30:26;4.25;;;1.90;;
43504;SDS011;29098;48.184;16.298;2022-08-04T13:32:58;4.38;;;1.80;;
43504;SDS011;29098;48.184;16.298;2022-08-04T13:35:25;4.10;;;1.90;;
43504;SDS011;29098;48.184;16.298;2022-08-04T13:37:53;4.53;;;1.98;;
43504;SDS011;29098;48.184;16.298;2022-08-04T13:40:21;3.03;;;1.65;;
43504;SDS011;29098;48.184;16.298;2022-08-04T13:42:50;4.68;;;2.25;;
43504;SDS011;29098;48.184;16.298;2022-08-04T13:45:23;3.38;;;1.90;;
43504;SDS011;29098;48.184;16.298;2022-08-04T13:47:50;3.47;;;2.08;;
43504;SDS011;29098;48.184;16.298;2022-08-04T13:50:27;4.13;;;1.90;;
43504;SDS011;29098;48.184;16.298;2022-08-04T13:52:57;8.37;;;2.00;;
43504;SDS011;29098;48.184;16.298;2022-08-04T13:55:25;3.53;;;1.90;;
43504;SDS011;29098;48.184;16.298;2022-08-04T13:58:04;2.83;;;1.80;;
43504;SDS011;29098;48.184;16.298;2022-08-04T14:00:38;3.33;;;1.80;;
43504;SDS011;29098;48.184;16.298;2022-08-04T14:05:33;3.65;;;2.05;;
43504;SDS011;29098;48.184;16.298;2022-08-04T14:08:05;4.72;;;2.00;;
43504;SDS011;29098;48.184;16.298;2022-08-04T14:10:34;4.22;;;1.77;;
43504;SDS011;29098;48.184;16.298;2022-08-04T14:13:00;2.80;;;1.90;;
43504;SDS011;29098;48.184;16.298;2022-08-04T14:18:14;4.07;;;1.90;;
43504;SDS011;29098;48.184;16.298;2022-08-04T14:21:01;3.17;;;1.80;;
43504;SDS011;29098;48.184;16.298;2022-08-04T14:23:45;4.40;;;2.10;;
43504;SDS011;29098;48.184;16.298;2022-08-04T14:26:26;3.28;;;1.80;;
43504;SDS011;29098;48.184;16.298;2022-08-04T14:28:53;6.10;;;2.00;;
43504;SDS011;29098;48.184;16.298;2022-08-04T14:31:24;3.90;;;2.15;;
43504;SDS011;29098;48.184;16.298;2022-08-04T14:33:51;2.95;;;1.90;;
43504;SDS011;29098;48.184;16.298;2022-08-04T14:36:18;5.38;;;1.95;;
43504;SDS011;29098;48.184;16.298;2022-08-04T14:38:46;3.28;;;1.70;;
43504;SDS011;29098;48.184;16.298;2022-08-04T14:41:12;3.33;;;1.65;;
43504;SDS011;29098;48.184;16.298;2022-08-04T14:43:49;4.07;;;1.50;;
43504;SDS011;29098;48.184;16.298;2022-08-04T14:46:24;3.33;;;1.80;;
43504;SDS011;29098;48.184;16.298;2022-08-04T14:49:07;4.95;;;2.08;;
43504;SDS011;29098;48.184;16.298;2022-08-04T14:51:37;3.20;;;2.00;;
43504;SDS011;29098;48.184;16.298;2022-08-04T14:54:05;4.35;;;1.88;;
43504;SDS011;29098;48.184;16.298;2022-08-04T14:56:32;5.18;;;1.80;;
43504;SDS011;29098;48.184;16.298;2022-08-04T14:59:00;4.65;;;2.58;;
43504;SDS011;29098;48.184;16.298;2022-08-04T15:01:31;3.22;;;2.15;;
43504;SDS011;29098;48.184;16.298;2022-08-04T15:03:57;4.18;;;2.03;;
43504;SDS011;29098;48.184;16.298;2022-08-04T15:06:26;5.20;;;1.95;;
43504;SDS011;29098;48.184;16.298;2022-08-04T15:08:54;2.92;;;2.00;;
43504;SDS011;29098;48.184;16.298;2022-08-04T15:11:22;3.40;;;1.85;;
43504;SDS011;29098;48.184;16.298;2022-08-04T15:13:48;3.78;;;1.92;;
43504;SDS011;29098;48.184;16.298;2022-08-04T15:16:13;3.00;;;1.60;;
43504;SDS011;29098;48.184;16.298;2022-08-04T15:18:40;3.55;;;1.88;;
43504;SDS011;29098;48.184;16.298;2022-08-04T15:21:06;4.03;;;1.70;;
43504;SDS011;29098;48.184;16.298;2022-08-04T15:23:32;3.67;;;2.00;;
43504;SDS011;29098;48.184;16.298;2022-08-04T15:25:59;4.05;;;2.00;;
43504;SDS011;29098;48.184;16.298;2022-08-04T15:28:28;2.88;;;1.90;;
43504;SDS011;29098;48.184;16.298;2022-08-04T15:30:56;3.88;;;1.80;;
43504;SDS011;29098;48.184;16.298;2022-08-04T15:33:25;5.10;;;2.13;;
43504;SDS011;29098;48.184;16.298;2022-08-04T15:36:08;3.00;;;1.60;;
43504;SDS011;29098;48.184;16.298;2022-08-04T15:47:15;4.38;;;1.60;;
43504;SDS011;29098;48.184;16.298;2022-08-04T15:49:41;6.18;;;1.80;;
43504;SDS011;29098;48.184;16.298;2022-08-04T15:52:09;5.15;;;1.70;;
43504;SDS011;29098;48.184;16.298;2022-08-04T15:54:36;3.92;;;2.03;;
43504;SDS011;29098;48.184;16.298;2022-08-04T15:57:04;3.33;;;2.20;;
43504;SDS011;29098;48.184;16.298;2022-08-04T16:05:27;4.40;;;1.83;;
43504;SDS011;29098;48.184;16.298;2022-08-04T16:12:56;2.72;;;1.73;;
43504;SDS011;29098;48.184;16.298;2022-08-04T16:15:36;3.83;;;2.00;;
43504;SDS011;29098;48.184;16.298;2022-08-04T16:18:04;4.32;;;1.90;;
43504;SDS011;29098;48.184;16.298;2022-08-04T16:20:31;3.88;;;1.80;;
43504;SDS011;29098;48.184;16.298;2022-08-04T16:22:59;5.97;;;1.75;;
43504;SDS011;29098;48.184;16.298;2022-08-04T16:25:44;7.18;;;2.03;;
43504;SDS011;29098;48.184;16.298;2022-08-04T16:31:02;2.92;;;1.80;;
43504;SDS011;29098;48.184;16.298;2022-08-04T16:33:29;2.97;;;1.98;;
43504;SDS011;29098;48.184;16.298;2022-08-04T16:35:56;2.95;;;1.85;;
43504;SDS011;29098;48.184;16.298;2022-08-04T16:38:23;3.90;;;1.75;;
43504;SDS011;29098;48.184;16.298;2022-08-04T16:40:53;4.20;;;2.05;;
43504;SDS011;29098;48.184;16.298;2022-08-04T16:43:26;3.10;;;1.95;;
43504;SDS011;29098;48.184;16.298;2022-08-04T16:45:54;4.13;;;2.55;;
43504;SDS011;29098;48.184;16.298;2022-08-04T16:50:59;3.42;;;2.15;;
43504;SDS011;29098;48.184;16.298;2022-08-04T16:56:00;3.92;;;1.92;;
43504;SDS011;29098;48.184;16.298;2022-08-04T16:58:31;4.43;;;2.25;;
43504;SDS011;29098;48.184;16.298;2022-08-04T17:01:13;4.47;;;1.70;;
43504;SDS011;29098;48.184;16.298;2022-08-04T17:03:50;4.03;;;1.70;;
43504;SDS011;29098;48.184;16.298;2022-08-04T17:06:16;3.85;;;2.25;;
43504;SDS011;29098;48.184;16.298;2022-08-04T17:08:42;5.53;;;1.88;;
43504;SDS011;29098;48.184;16.298;2022-08-04T17:11:10;3.60;;;2.08;;
43504;SDS011;29098;48.184;16.298;2022-08-04T17:13:38;3.45;;;2.35;;
43504;SDS011;29098;48.184;16.298;2022-08-04T17:16:09;3.53;;;2.22;;
43504;SDS011;29098;48.184;16.298;2022-08-04T17:18:40;3.47;;;2.10;;
43504;SDS011;29098;48.184;16.298;2022-08-04T17:21:13;4.35;;;1.90;;
43504;SDS011;29098;48.184;16.298;2022-08-04T17:23:50;4.68;;;2.35;;
43504;SDS011;29098;48.184;16.298;2022-08-04T17:26:19;3.17;;;2.10;;
43504;SDS011;29098;48.184;16.298;2022-08-04T17:28:50;3.45;;;2.38;;
43504;SDS011;29098;48.184;16.298;2022-08-04T17:31:19;5.32;;;1.92;;
43504;SDS011;29098;48.184;16.298;2022-08-04T17:33:51;4.78;;;1.70;;
43504;SDS011;29098;48.184;16.298;2022-08-04T17:36:22;3.65;;;1.95;;
43504;SDS011;29098;48.184;16.298;2022-08-04T17:38:53;4.93;;;2.25;;
43504;SDS011;29098;48.184;16.298;2022-08-04T17:41:23;4.70;;;2.63;;
43504;SDS011;29098;48.184;16.298;2022-08-04T17:43:51;3.47;;;2.00;;
43504;SDS011;29098;48.184;16.298;2022-08-04T17:46:22;3.60;;;2.13;;
43504;SDS011;29098;48.184;16.298;2022-08-04T17:49:07;5.25;;;2.50;;
43504;SDS011;29098;48.184;16.298;2022-08-04T17:51:39;5.15;;;3.60;;
43504;SDS011;29098;48.184;16.298;2022-08-04T17:54:07;4.63;;;2.95;;
43504;SDS011;29098;48.184;16.298;2022-08-04T17:56:35;6.95;;;3.17;;
43504;SDS011;29098;48.184;16.298;2022-08-04T17:59:20;4.88;;;2.17;;
43504;SDS011;29098;48.184;16.298;2022-08-04T18:01:58;4.28;;;2.75;;
43504;SDS011;29098;48.184;16.298;2022-08-04T18:07:12;5.88;;;2.50;;
43504;SDS011;29098;48.184;16.298;2022-08-04T18:09:40;5.28;;;2.40;;
43504;SDS011;29098;48.184;16.298;2022-08-04T18:12:26;4.10;;;2.40;;
43504;SDS011;29098;48.184;16.298;2022-08-04T18:14:56;3.83;;;2.63;;
43504;SDS011;29098;48.184;16.298;2022-08-04T18:19:58;4.30;;;2.50;;
43504;SDS011;29098;48.184;16.298;2022-08-04T18:22:24;4.90;;;2.50;;
43504;SDS011;29098;48.184;16.298;2022-08-04T18:24:52;5.55;;;2.60;;
43504;SDS011;29098;48.184;16.298;2022-08-04T18:27:18;4.60;;;2.17;;
43504;SDS011;29098;48.184;16.298;2022-08-04T18:29:46;4.03;;;2.33;;
43504;SDS011;29098;48.184;16.298;2022-08-04T18:32:12;5.95;;;2.42;;
43504;SDS011;29098;48.184;16.298;2022-08-04T18:34:38;4.35;;;2.53;;
43504;SDS011;29098;48.184;16.298;2022-08-04T18:37:04;6.13;;;2.55;;
43504;SDS011;29098;48.184;16.298;2022-08-04T18:39:29;6.05;;;2.47;;
43504;SDS011;29098;48.184;16.298;2022-08-04T18:41:55;3.63;;;2.40;;
43504;SDS011;29098;48.184;16.298;2022-08-04T18:44:21;4.65;;;2.28;;
43504;SDS011;29098;48.184;16.298;2022-08-04T18:46:47;4.93;;;2.28;;
43504;SDS011;29098;48.184;16.298;2022-08-04T18:49:13;3.28;;;2.30;;
43504;SDS011;29098;48.184;16.298;2022-08-04T18:51:48;3.80;;;2.47;;
43504;SDS011;29098;48.184;16.298;2022-08-04T18:54:14;3.60;;;2.08;;
43504;SDS011;29098;48.184;16.298;2022-08-04T18:56:39;4.28;;;2.33;;
43504;SDS011;29098;48.184;16.298;2022-08-04T18:59:05;6.80;;;2.47;;
43504;SDS011;29098;48.184;16.298;2022-08-04T19:01:31;5.43;;;2.30;;
43504;SDS011;29098;48.184;16.298;2022-08-04T19:03:57;3.97;;;2.65;;
43504;SDS011;29098;48.184;16.298;2022-08-04T19:06:33;5.07;;;2.38;;
43504;SDS011;29098;48.184;16.298;2022-08-04T19:09:00;6.78;;;2.28;;
43504;SDS011;29098;48.184;16.298;2022-08-04T19:11:27;3.85;;;2.28;;
43504;SDS011;29098;48.184;16.298;2022-08-04T19:13:52;4.90;;;2.55;;
43504;SDS011;29098;48.184;16.298;2022-08-04T19:16:18;5.47;;;2.35;;
43504;SDS011;29098;48.184;16.298;2022-08-04T19:18:44;6.32;;;3.63;;
43504;SDS011;29098;48.184;16.298;2022-08-04T19:21:09;4.25;;;2.50;;
43504;SDS011;29098;48.184;16.298;2022-08-04T19:23:34;4.82;;;2.88;;
43504;SDS011;29098;48.184;16.298;2022-08-04T19:26:00;6.35;;;2.75;;
43504;SDS011;29098;48.184;16.298;2022-08-04T19:28:26;4.22;;;2.72;;
43504;SDS011;29098;48.184;16.298;2022-08-04T19:30:55;5.13;;;2.40;;
43504;SDS011;29098;48.184;16.298;2022-08-04T19:33:21;4.63;;;2.38;;
43504;SDS011;29098;48.184;16.298;2022-08-04T19:35:46;4.00;;;2.50;;
43504;SDS011;29098;48.184;16.298;2022-08-04T19:38:15;9.48;;;3.08;;
43504;SDS011;29098;48.184;16.298;2022-08-04T19:40:42;4.78;;;3.05;;
43504;SDS011;29098;48.184;16.298;2022-08-04T19:43:09;4.25;;;2.80;;
43504;SDS011;29098;48.184;16.298;2022-08-04T19:45:35;4.70;;;3.20;;
43504;SDS011;29098;48.184;16.298;2022-08-04T19:48:01;4.53;;;3.05;;
43504;SDS011;29098;48.184;16.298;2022-08-04T19:50:33;5.40;;;3.38;;
43504;SDS011;29098;48.184;16.298;2022-08-04T19:53:02;5.68;;;2.95;;
43504;SDS011;29098;48.184;16.298;2022-08-04T19:55:28;5.05;;;2.95;;
43504;SDS011;29098;48.184;16.298;2022-08-04T19:57:54;4.97;;;2.70;;
43504;SDS011;29098;48.184;16.298;2022-08-04T20:00:21;4.43;;;3.20;;
43504;SDS011;29098;48.184;16.298;2022-08-04T20:02:47;5.22;;;3.08;;
43504;SDS011;29098;48.184;16.298;2022-08-04T20:05:13;5.35;;;3.00;;
43504;SDS011;29098;48.184;16.298;2022-08-04T20:07:39;5.65;;;3.05;;
43504;SDS011;29098;48.184;16.298;2022-08-04T20:10:05;5.15;;;3.28;;
43504;SDS011;29098;48.184;16.298;2022-08-04T20:12:32;5.45;;;3.03;;
43504;SDS011;29098;48.184;16.298;2022-08-04T20:14:58;6.47;;;3.33;;
43504;SDS011;29098;48.184;16.298;2022-08-04T20:17:24;13.13;;;3.25;;
43504;SDS011;29098;48.184;16.298;2022-08-04T20:19:49;5.68;;;3.40;;
43504;SDS011;29098;48.184;16.298;2022-08-04T20:22:15;5.00;;;3.33;;
43504;SDS011;29098;48.184;16.298;2022-08-04T20:24:43;5.10;;;3.35;;